Time;durP1;ratioP1;P1;durP2;ratioP2;P2;SDS_P1;SDS_P2;PMS_P1;PMS_P2;Temp;Humidity;BMP_temperature;BMP_pressure;BME280_temperature;BME280_humidity;BME280_pressure;Samples;Min_cycle;Max_cycle;Signal;HPM_P1;HPM_P2
2021/07/08 00:01:22;;;;;;;14.27;9.80;;;;;;;13.69;100.00;101872.13;3583789;40;20064;-61
2021/07/08 00:03:49;;;;;;;12.35;9.40;;;;;;;13.62;100.00;101873.69;3582134;40;20029;-61
2021/07/08 00:06:16;;;;;;;12.10;9.20;;;;;;;13.58;100.00;101870.38;3580434;40;20283;-60
2021/07/08 00:08:42;;;;;;;12.57;9.20;;;;;;;13.58;100.00;101870.38;3584460;40;20029;-61
2021/07/08 00:11:08;;;;;;;13.98;9.20;;;;;;;13.41;100.00;101873.66;3581480;40;20045;-61
2021/07/08 00:13:35;;;;;;;13.60;10.30;;;;;;;13.37;100.00;101883.00;3583641;40;20076;-61
2021/07/08 00:16:02;;;;;;;15.57;10.48;;;;;;;13.41;100.00;101873.66;3582183;40;20029;-60
2021/07/08 00:18:30;;;;;;;13.60;10.45;;;;;;;13.42;100.00;101880.78;3584390;40;20050;-61
2021/07/08 00:20:57;;;;;;;16.33;10.07;;;;;;;13.46;100.00;101876.84;3589893;40;20727;-61
2021/07/08 00:23:25;;;;;;;16.23;10.38;;;;;;;13.46;100.00;101871.44;3583334;40;20045;-61
2021/07/08 00:25:53;;;;;;;13.30;10.15;;;;;;;13.43;100.00;101868.97;3583717;40;20035;-61
2021/07/08 00:28:20;;;;;;;16.13;10.20;;;;;;;13.25;100.00;101877.63;3578071;40;20044;-61
2021/07/08 00:30:49;;;;;;;13.70;10.30;;;;;;;13.20;100.00;101876.28;3581748;40;20282;-60
2021/07/08 00:33:15;;;;;;;;;;;;;;;13.25;100.00;101880.31;3583121;40;20385;-60
2021/07/08 00:35:43;;;;;;;15.52;10.73;;;;;;;13.31;100.00;101885.22;3579020;40;20022;-61
2021/07/08 00:41:01;;;;;;;14.20;10.93;;;;;;;13.33;100.00;101877.81;3625685;22;20387;-60
2021/07/08 00:43:28;;;;;;;15.45;10.98;;;;;;;13.38;100.00;101873.91;3600197;39;20064;-61
2021/07/08 00:45:55;;;;;;;12.23;10.35;;;;;;;13.35;100.00;101874.16;3602271;39;20394;-61
2021/07/08 00:48:22;;;;;;;12.88;9.60;;;;;;;13.32;100.00;101880.66;3602104;39;20152;-60
2021/07/08 00:50:49;;;;;;;12.13;10.02;;;;;;;13.37;100.00;101883.00;3601824;39;20079;-60
2021/07/08 00:53:19;;;;;;;12.05;9.38;;;;;;;13.22;100.00;101888.69;3602473;39;20028;-60
2021/07/08 00:55:47;;;;;;;13.73;9.75;;;;;;;13.21;100.00;101892.38;3604697;39;20044;-60
2021/07/08 00:58:15;;;;;;;12.35;9.90;;;;;;;13.25;100.00;101884.84;3601591;39;20050;-60
2021/07/08 01:00:42;;;;;;;13.43;10.57;;;;;;;13.18;100.00;101889.94;3604247;39;20031;-61
2021/07/08 01:03:10;;;;;;;15.52;11.68;;;;;;;13.18;100.00;101894.50;3603953;39;20421;-60
2021/07/08 01:05:39;;;;;;;16.75;11.23;;;;;;;13.16;100.00;101889.19;3601902;39;20298;-61
2021/07/08 01:08:08;;;;;;;14.95;11.65;;;;;;;13.15;100.00;101887.50;3604044;39;20028;-60
2021/07/08 01:10:34;;;;;;;15.77;11.07;;;;;;;13.19;100.00;101886.25;3605947;39;20036;-61
2021/07/08 01:13:01;;;;;;;13.93;10.45;;;;;;;13.21;100.00;101884.28;3603876;39;20048;-60
2021/07/08 01:15:28;;;;;;;14.27;10.63;;;;;;;13.21;100.00;101886.97;3602796;39;20040;-61
2021/07/08 01:17:55;;;;;;;16.58;11.27;;;;;;;13.19;100.00;101888.97;3601066;39;20052;-60
2021/07/08 01:20:24;;;;;;;13.93;10.55;;;;;;;13.08;100.00;101883.56;3604029;39;20044;-60
2021/07/08 01:22:57;;;;;;;;;;;;;;;13.03;100.00;101888.47;3603530;39;20059;-61
2021/07/08 01:25:26;;;;;;;13.85;10.88;;;;;;;12.96;100.00;101889.00;3605861;39;19935;-61
2021/07/08 01:27:53;;;;;;;15.33;11.50;;;;;;;12.92;100.00;101889.38;3602687;39;20092;-61
2021/07/08 01:30:20;;;;;;;13.45;9.88;;;;;;;12.93;100.00;101886.56;3602794;39;20268;-61
2021/07/08 01:32:47;;;;;;;14.48;9.70;;;;;;;13.02;100.00;101881.38;3605659;39;20037;-60
2021/07/08 01:35:15;;;;;;;12.90;9.57;;;;;;;13.07;100.00;101881.84;3603898;39;20036;-61
2021/07/08 01:37:41;;;;;;;17.15;10.45;;;;;;;12.94;100.00;101877.47;3600997;39;20037;-60
2021/07/08 01:40:11;;;;;;;15.82;9.65;;;;;;;12.86;100.00;101884.50;3600156;39;20092;-61
2021/07/08 01:42:38;;;;;;;11.70;8.77;;;;;;;12.80;100.00;101886.69;3598268;39;20043;-61
2021/07/08 01:45:07;;;;;;;14.95;9.98;;;;;;;12.80;100.00;101885.84;3602377;39;20040;-61
2021/07/08 01:47:33;;;;;;;16.13;9.90;;;;;;;12.82;100.00;101883.03;3604885;39;20039;-61
2021/07/08 01:50:00;;;;;;;14.02;10.00;;;;;;;12.85;100.00;101880.06;3604555;39;20253;-60
2021/07/08 01:52:27;;;;;;;15.23;11.30;;;;;;;12.82;100.00;101878.47;3606119;39;20418;-61
2021/07/08 01:54:53;;;;;;;15.18;10.70;;;;;;;12.82;100.00;101880.31;3603803;39;20034;-61
2021/07/08 01:57:21;;;;;;;15.38;11.18;;;;;;;12.89;100.00;101885.09;3600792;39;20032;-61
2021/07/08 01:59:48;;;;;;;16.40;12.15;;;;;;;12.85;100.00;101883.63;3605133;39;20056;-60
2021/07/08 02:02:14;;;;;;;17.95;11.50;;;;;;;12.79;100.00;101886.81;3600710;39;20032;-61
2021/07/08 02:04:40;;;;;;;17.00;11.25;;;;;;;12.85;100.00;101889.00;3602921;39;20060;-61
2021/07/08 02:07:07;;;;;;;16.50;13.20;;;;;;;12.95;100.00;101889.13;3604268;39;20035;-60
2021/07/08 02:09:33;;;;;;;18.92;13.20;;;;;;;13.13;100.00;101884.03;3606523;39;20032;-60
2021/07/08 02:12:01;;;;;;;20.85;13.43;;;;;;;13.18;100.00;101879.13;3602867;39;20276;-60
2021/07/08 02:14:29;;;;;;;17.67;12.73;;;;;;;13.28;100.00;101874.66;3602327;39;20079;-60
2021/07/08 02:16:56;;;;;;;18.17;12.55;;;;;;;13.36;100.00;101874.03;3604337;39;20034;-60
2021/07/08 02:19:23;;;;;;;21.30;13.25;;;;;;;13.40;100.00;101866.53;3603623;39;20070;-61
2021/07/08 02:21:49;;;;;;;16.00;11.75;;;;;;;13.39;100.00;101864.81;3603841;39;20027;-61
2021/07/08 02:24:16;;;;;;;17.55;11.73;;;;;;;13.39;100.00;101859.41;3602915;39;20043;-61
2021/07/08 02:26:42;;;;;;;14.90;11.20;;;;;;;13.34;100.00;101870.63;3602078;39;20031;-60
2021/07/08 02:29:09;;;;;;;17.65;12.40;;;;;;;13.45;100.00;101865.13;3600841;39;20420;-60
2021/07/08 02:31:37;;;;;;;14.85;12.02;;;;;;;13.59;100.00;101855.88;3601408;39;20047;-61
2021/07/08 02:34:04;;;;;;;15.15;11.02;;;;;;;13.69;100.00;101866.72;3603526;39;20030;-61
2021/07/08 02:36:30;;;;;;;18.80;12.25;;;;;;;13.65;100.00;101860.75;3604664;39;20116;-60
2021/07/08 02:38:57;;;;;;;14.63;11.10;;;;;;;13.76;100.00;101865.22;3603419;39;20035;-60
2021/07/08 02:41:23;;;;;;;14.30;11.48;;;;;;;13.71;100.00;101869.34;3599522;39;20071;-61
2021/07/08 02:43:50;;;;;;;15.07;10.43;;;;;;;13.80;100.00;101863.13;3601689;39;20074;-61
2021/07/08 02:46:17;;;;;;;15.18;11.65;;;;;;;13.73;100.00;101861.94;3602630;39;20055;-61
2021/07/08 02:48:45;;;;;;;13.82;10.23;;;;;;;13.69;100.00;101860.47;3601424;39;20044;-61
2021/07/08 02:51:11;;;;;;;15.60;11.05;;;;;;;13.74;100.00;101858.25;3601809;39;20048;-61
2021/07/08 02:53:38;;;;;;;14.82;11.10;;;;;;;13.69;100.00;101849.66;3604709;39;20036;-61
2021/07/08 02:56:05;;;;;;;14.45;11.23;;;;;;;13.63;100.00;101843.78;3604274;39;20031;-61
2021/07/08 02:58:31;;;;;;;16.83;11.85;;;;;;;13.63;100.00;101845.63;3602724;39;20028;-61
2021/07/08 03:00:58;;;;;;;18.08;11.75;;;;;;;13.52;100.00;101857.38;3605975;39;20043;-61
2021/07/08 03:03:24;;;;;;;14.57;10.10;;;;;;;13.44;100.00;101854.44;3603630;39;20043;-60
2021/07/08 03:05:52;;;;;;;16.58;10.82;;;;;;;13.31;100.00;101854.63;3600396;39;20052;-60
2021/07/08 03:08:18;;;;;;;15.80;10.52;;;;;;;13.41;100.00;101862.81;3604022;39;20303;-61
2021/07/08 03:10:45;;;;;;;12.82;9.52;;;;;;;13.42;100.00;101876.22;3603550;39;20362;-61
2021/07/08 03:13:11;;;;;;;16.63;10.55;;;;;;;13.31;100.00;101881.66;3602966;39;20043;-61
2021/07/08 03:15:38;;;;;;;15.10;11.13;;;;;;;13.25;100.00;101874.03;3604070;39;20055;-61
2021/07/08 03:18:05;;;;;;;19.38;11.23;;;;;;;13.23;100.00;101879.56;3600550;39;20040;-61
2021/07/08 03:20:34;;;;;;;18.00;11.20;;;;;;;13.21;100.00;101886.97;3603321;39;20024;-61
2021/07/08 03:23:03;;;;;;;16.45;11.38;;;;;;;13.09;100.00;101890.72;3602995;39;20036;-61
2021/07/08 03:25:30;;;;;;;17.38;11.35;;;;;;;13.11;100.00;101886.03;3602743;39;20037;-61
2021/07/08 03:27:57;;;;;;;21.85;11.65;;;;;;;13.15;100.00;101882.09;3600455;39;20094;-61
2021/07/08 03:30:25;;;;;;;15.07;10.70;;;;;;;13.12;100.00;101882.34;3603100;39;20044;-61
2021/07/08 03:32:53;;;;;;;14.85;11.02;;;;;;;13.09;100.00;101874.50;3599302;39;20036;-60
2021/07/08 03:35:19;;;;;;;15.20;11.20;;;;;;;13.12;100.00;101874.22;3603901;39;20043;-61
2021/07/08 03:37:46;;;;;;;17.63;11.85;;;;;;;13.12;100.00;101890.44;3601823;39;20027;-61
2021/07/08 03:40:16;;;;;;;15.50;10.82;;;;;;;13.07;100.00;101903.47;3603106;39;20087;-61
2021/07/08 03:42:44;;;;;;;15.65;11.20;;;;;;;13.05;100.00;101905.44;3602951;39;20032;-61
2021/07/08 03:45:12;;;;;;;13.95;11.52;;;;;;;12.95;100.00;101903.50;3604307;39;20038;-60
2021/07/08 03:47:39;;;;;;;20.17;12.35;;;;;;;13.07;100.00;101908.88;3605790;39;20031;-60
2021/07/08 03:50:07;;;;;;;13.73;10.90;;;;;;;13.11;100.00;101905.78;3603063;39;20032;-60
2021/07/08 03:52:33;;;;;;;17.90;12.55;;;;;;;13.17;100.00;101903.56;3603295;39;20032;-61
2021/07/08 03:55:00;;;;;;;17.70;12.00;;;;;;;13.17;100.00;101899.03;3604052;39;20035;-61
2021/07/08 03:57:28;;;;;;;16.42;12.25;;;;;;;13.17;100.00;101896.31;3601873;39;20028;-61
2021/07/08 03:59:54;;;;;;;16.20;12.32;;;;;;;13.23;100.00;101898.50;3603521;39;20028;-60
2021/07/08 04:02:21;;;;;;;14.38;12.18;;;;;;;13.22;100.00;101894.09;3599407;39;20068;-61
2021/07/08 04:04:47;;;;;;;15.48;11.48;;;;;;;13.23;100.00;101887.69;3601539;39;20054;-61
2021/07/08 04:07:14;;;;;;;17.75;11.52;;;;;;;13.32;100.00;101897.75;3601587;39;20042;-60
2021/07/08 04:09:40;;;;;;;15.90;10.30;;;;;;;13.43;100.00;101893.31;3603767;39;20387;-61
2021/07/08 04:12:07;;;;;;;16.98;11.80;;;;;;;13.44;100.00;101901.31;3599996;39;20040;-61
2021/07/08 04:14:35;;;;;;;15.65;12.18;;;;;;;13.47;100.00;101902.88;3602091;39;20038;-61
2021/07/08 04:17:02;;;;;;;15.63;11.55;;;;;;;13.51;100.00;101904.31;3603251;39;20670;-61
2021/07/08 04:19:28;;;;;;;15.02;10.82;;;;;;;13.55;100.00;101904.94;3604071;39;20024;-61
2021/07/08 04:21:55;;;;;;;13.98;10.88;;;;;;;13.61;100.00;101897.16;3605217;39;20043;-60
2021/07/08 04:24:21;;;;;;;14.40;10.65;;;;;;;13.79;100.00;101896.56;3603046;39;20036;-60
2021/07/08 04:26:48;;;;;;;16.45;10.93;;;;;;;13.83;100.00;101893.47;3601767;39;20062;-61
2021/07/08 04:29:14;;;;;;;18.88;11.57;;;;;;;13.93;100.00;101890.84;3600806;39;20052;-61
2021/07/08 04:31:42;;;;;;;15.63;11.65;;;;;;;13.97;100.00;101897.69;3600212;39;20028;-60
2021/07/08 04:34:08;;;;;;;14.43;11.40;;;;;;;14.04;100.00;101908.00;3601314;39;20401;-61
2021/07/08 04:36:35;;;;;;;17.20;12.18;;;;;;;14.09;100.00;101905.72;3603785;39;20363;-60
2021/07/08 04:39:01;;;;;;;14.27;11.02;;;;;;;14.16;100.00;101909.63;3602853;39;20035;-61
2021/07/08 04:41:28;;;;;;;18.02;11.70;;;;;;;14.22;100.00;101906.38;3600061;39;20052;-61
2021/07/08 04:43:54;;;;;;;18.15;12.40;;;;;;;14.31;100.00;101905.59;3603802;39;20049;-61
2021/07/08 04:46:21;;;;;;;14.52;12.00;;;;;;;14.42;100.00;101907.34;3604136;39;20029;-61
2021/07/08 04:48:49;;;;;;;17.77;11.63;;;;;;;14.51;100.00;101911.09;3603040;39;20329;-61
2021/07/08 04:51:15;;;;;;;15.00;11.00;;;;;;;14.49;100.00;101911.22;3603214;39;20055;-61
2021/07/08 04:53:43;;;;;;;16.02;11.90;;;;;;;14.60;100.00;101912.13;3600135;39;20115;-61
2021/07/08 04:56:10;;;;;;;15.82;12.32;;;;;;;14.60;100.00;101915.66;3604610;39;20034;-61
2021/07/08 04:58:36;;;;;;;16.15;10.75;;;;;;;14.78;100.00;101913.22;3602431;39;20023;-61
2021/07/08 05:01:02;;;;;;;13.75;11.15;;;;;;;14.89;100.00;101913.09;3603518;39;20361;-61
2021/07/08 05:03:29;;;;;;;14.77;11.25;;;;;;;14.98;100.00;101924.13;3600618;39;20098;-61
2021/07/08 05:05:57;;;;;;;14.38;11.48;;;;;;;14.94;100.00;101925.38;3601893;39;20032;-60
2021/07/08 05:08:23;;;;;;;15.00;11.13;;;;;;;14.92;100.00;101921.97;3602238;39;20396;-61
2021/07/08 05:10:49;;;;;;;16.02;11.10;;;;;;;15.09;100.00;101921.28;3604720;39;20042;-61
2021/07/08 05:13:16;;;;;;;15.43;10.73;;;;;;;15.18;100.00;101914.13;3601922;39;20032;-61
2021/07/08 05:15:42;;;;;;;16.80;11.60;;;;;;;15.29;100.00;101921.31;3604563;39;20020;-61
2021/07/08 05:18:09;;;;;;;14.07;10.15;;;;;;;15.47;100.00;101933.16;3599459;39;20032;-61
2021/07/08 05:20:37;;;;;;;16.02;10.60;;;;;;;15.53;100.00;101932.63;3604154;39;20043;-61
2021/07/08 05:23:13;;;;;;;18.43;11.37;;;;;;;15.29;100.00;101943.84;3603321;39;20445;-61
2021/07/08 05:25:39;;;;;;;19.58;11.63;;;;;;;15.24;100.00;101941.56;3601137;39;20047;-61
2021/07/08 05:28:06;;;;;;;19.17;12.25;;;;;;;15.31;100.00;101952.72;3599467;39;20030;-61
2021/07/08 05:30:32;;;;;;;18.70;13.68;;;;;;;15.35;100.00;101946.00;3602471;39;20039;-61
2021/07/08 05:32:59;;;;;;;17.77;13.75;;;;;;;15.59;100.00;101940.19;3602490;39;20055;-61
2021/07/08 05:35:26;;;;;;;17.95;13.50;;;;;;;15.71;100.00;101949.03;3601401;39;20040;-61
2021/07/08 05:37:53;;;;;;;16.27;12.80;;;;;;;15.85;100.00;101955.06;3599364;39;20071;-61
2021/07/08 05:40:20;;;;;;;17.88;12.70;;;;;;;15.88;100.00;101960.19;3599110;39;20075;-61
2021/07/08 05:42:47;;;;;;;16.13;11.02;;;;;;;15.87;100.00;101956.63;3606875;39;20044;-61
2021/07/08 05:45:13;;;;;;;18.17;11.70;;;;;;;15.89;100.00;101959.22;3602639;39;20048;-61
2021/07/08 05:47:40;;;;;;;17.88;11.90;;;;;;;15.94;100.00;101965.91;3606235;39;20388;-61
2021/07/08 05:50:08;;;;;;;16.88;12.27;;;;;;;15.98;100.00;101966.47;3603764;39;20036;-62
2021/07/08 05:52:34;;;;;;;16.58;12.45;;;;;;;16.00;100.00;101974.47;3605531;39;20041;-61
2021/07/08 05:55:01;;;;;;;20.38;13.35;;;;;;;15.99;100.00;101973.63;3606135;39;20040;-61
2021/07/08 05:57:29;;;;;;;17.08;11.85;;;;;;;16.08;100.00;101978.19;3601912;39;20037;-61
2021/07/08 05:59:56;;;;;;;19.55;12.57;;;;;;;16.16;100.00;101979.31;3604323;39;20066;-61
2021/07/08 06:02:22;;;;;;;17.70;11.52;;;;;;;16.23;100.00;101980.44;3601097;39;20075;-61
2021/07/08 06:04:49;;;;;;;18.98;12.80;;;;;;;16.49;100.00;101979.81;3604503;39;20038;-62
2021/07/08 06:07:15;;;;;;;16.80;12.23;;;;;;;16.64;100.00;101978.34;3603752;39;20035;-61
2021/07/08 06:09:42;;;;;;;17.67;13.15;;;;;;;16.72;100.00;101973.00;3607204;39;20039;-61
2021/07/08 06:12:08;;;;;;;13.70;11.10;;;;;;;16.76;100.00;101971.69;3602267;39;20048;-61
2021/07/08 06:14:36;;;;;;;18.73;11.85;;;;;;;16.86;100.00;101960.78;3603495;39;20416;-61
2021/07/08 06:17:06;;;;;;;16.40;11.45;;;;;;;17.00;100.00;101967.59;3603356;39;21835;-61
2021/07/08 06:19:33;;;;;;;17.08;10.80;;;;;;;17.30;100.00;101968.31;3604554;39;20657;-61
2021/07/08 06:21:59;;;;;;;15.60;11.02;;;;;;;17.44;100.00;101973.19;3599206;39;20051;-61
2021/07/08 06:24:26;;;;;;;17.40;11.30;;;;;;;17.59;100.00;101962.63;3601956;39;20059;-61
2021/07/08 06:26:52;;;;;;;14.70;10.95;;;;;;;17.84;100.00;101974.63;3601857;39;20371;-62
2021/07/08 06:29:19;;;;;;;16.15;9.85;;;;;;;17.98;100.00;101977.84;3600645;39;20073;-61
2021/07/08 06:31:46;;;;;;;15.98;10.00;;;;;;;18.18;100.00;101963.00;3600162;39;20048;-61
2021/07/08 06:34:13;;;;;;;15.82;9.80;;;;;;;18.29;100.00;101959.16;3604611;39;20043;-61
2021/07/08 06:36:39;;;;;;;14.90;8.65;;;;;;;18.49;100.00;101954.34;3601301;39;20035;-61
2021/07/08 06:39:06;;;;;;;12.80;8.77;;;;;;;18.80;100.00;101955.69;3604211;39;20314;-61
2021/07/08 06:41:33;;;;;;;12.80;8.77;;;;;;;19.02;100.00;101954.25;3603147;39;20067;-61
2021/07/08 06:43:59;;;;;;;14.88;9.07;;;;;;;19.07;100.00;101957.34;3601714;39;20113;-62
2021/07/08 06:46:29;;;;;;;11.82;7.82;;;;;;;19.20;100.00;101951.44;3598812;39;20764;-62
2021/07/08 06:48:58;;;;;;;9.43;7.10;;;;;;;19.44;100.00;101956.09;3605813;39;20052;-62
2021/07/08 06:51:24;;;;;;;12.65;6.85;;;;;;;19.48;100.00;101954.72;3594343;39;20038;-62
2021/07/08 06:53:51;;;;;;;11.38;6.85;;;;;;;19.28;100.00;101954.16;3601177;39;20036;-61
2021/07/08 06:56:18;;;;;;;11.85;6.50;;;;;;;19.47;100.00;101958.47;3603116;39;20099;-62
2021/07/08 06:58:44;;;;;;;12.05;6.30;;;;;;;19.27;100.00;101952.44;3599238;39;20040;-61
2021/07/08 07:01:11;;;;;;;8.50;6.35;;;;;;;19.15;100.00;101962.81;3604584;39;20044;-61
2021/07/08 07:03:38;;;;;;;11.68;6.07;;;;;;;19.20;100.00;101973.28;3602602;39;20301;-61
2021/07/08 07:06:06;;;;;;;13.70;7.10;;;;;;;19.10;100.00;101972.56;3600948;39;20042;-61
2021/07/08 07:08:33;;;;;;;11.07;7.17;;;;;;;18.42;100.00;101988.72;3604093;39;20031;-61
2021/07/08 07:11:00;;;;;;;11.98;6.72;;;;;;;18.45;100.00;101993.84;3602272;39;20281;-61
2021/07/08 07:13:26;;;;;;;11.32;6.40;;;;;;;18.69;100.00;101990.41;3601793;39;20060;-61
2021/07/08 07:15:53;;;;;;;9.18;6.70;;;;;;;18.77;100.00;101989.59;3601701;39;20485;-61
2021/07/08 07:18:19;;;;;;;10.70;6.43;;;;;;;19.41;100.00;101981.84;3604605;39;20140;-61
2021/07/08 07:20:46;;;;;;;10.13;6.13;;;;;;;19.58;100.00;101981.88;3604582;39;20032;-60
2021/07/08 07:23:14;;;;;;;8.98;4.63;;;;;;;19.83;100.00;101977.34;3600769;39;20032;-61
2021/07/08 07:25:41;;;;;;;8.05;5.50;;;;;;;20.37;100.00;101979.50;3602362;39;20045;-61
2021/07/08 07:28:09;;;;;;;6.18;4.53;;;;;;;20.27;100.00;101990.66;3601267;39;20043;-61
2021/07/08 07:30:37;;;;;;;12.15;5.03;;;;;;;19.84;100.00;101991.84;3602970;39;20036;-61
2021/07/08 07:33:04;;;;;;;7.97;4.28;;;;;;;20.19;100.00;101987.06;3603331;39;20412;-61
2021/07/08 07:35:31;;;;;;;7.03;3.95;;;;;;;20.31;100.00;101981.03;3602385;39;20024;-61
2021/07/08 07:37:58;;;;;;;8.10;3.53;;;;;;;20.64;100.00;101971.91;3598479;39;20064;-60
2021/07/08 07:40:26;;;;;;;7.10;3.50;;;;;;;20.80;100.00;101976.50;3602301;39;20054;-60
2021/07/08 07:42:52;;;;;;;4.22;2.70;;;;;;;20.96;100.00;101981.06;3600477;39;20039;-61
2021/07/08 07:45:19;;;;;;;7.75;3.00;;;;;;;21.17;100.00;101985.91;3600183;39;20383;-61
2021/07/08 07:47:46;;;;;;;8.70;2.97;;;;;;;20.94;100.00;101989.47;3600399;39;20069;-61
2021/07/08 07:50:12;;;;;;;9.10;3.60;;;;;;;21.22;100.00;101994.47;3600483;39;20394;-61
2021/07/08 07:52:39;;;;;;;6.18;2.40;;;;;;;21.16;100.00;101987.81;3601819;39;20058;-61
2021/07/08 07:55:06;;;;;;;4.68;2.45;;;;;;;20.72;100.00;101995.72;3599584;39;20028;-61
2021/07/08 07:57:35;;;;;;;3.40;2.58;;;;;;;20.95;100.00;101991.19;3599100;39;20439;-61
2021/07/08 08:00:01;;;;;;;5.50;2.63;;;;;;;21.95;100.00;102003.28;3601669;39;20043;-61
2021/07/08 08:02:28;;;;;;;6.80;2.58;;;;;;;21.50;100.00;101991.22;3603887;39;20060;-61
2021/07/08 08:10:04;;;;;;;8.18;2.88;;;;;;;21.17;100.00;101995.00;3586464;40;20050;-60
2021/07/08 08:12:30;;;;;;;6.95;3.15;;;;;;;21.10;100.00;101996.75;3595915;39;20395;-61
2021/07/08 08:14:58;;;;;;;7.25;2.85;;;;;;;21.06;100.00;101994.56;3597569;40;20024;-61
2021/07/08 08:17:24;;;;;;;6.97;2.55;;;;;;;21.38;100.00;101998.13;3596193;39;20037;-61
2021/07/08 08:19:51;;;;;;;5.63;2.60;;;;;;;20.85;100.00;101990.53;3595280;39;20032;-61
2021/07/08 08:22:20;;;;;;;4.68;2.25;;;;;;;20.95;100.00;101990.31;3597683;39;20413;-60
2021/07/08 08:24:46;;;;;;;5.40;2.58;;;;;;;21.26;100.00;101995.81;3596959;39;20032;-61
2021/07/08 08:27:13;;;;;;;4.57;2.53;;;;;;;21.37;100.00;101999.19;3596347;40;20028;-61
2021/07/08 08:29:40;;;;;;;3.13;2.17;;;;;;;20.78;100.00;101990.38;3593525;39;20036;-61
2021/07/08 08:32:09;;;;;;;4.38;1.85;;;;;;;20.83;100.00;102009.00;3593506;39;20291;-61
2021/07/08 08:34:36;;;;;;;3.50;1.92;;;;;;;21.17;100.00;102005.09;3597020;39;20091;-61
2021/07/08 08:37:02;;;;;;;3.35;2.38;;;;;;;21.32;100.00;102019.75;3596358;39;20385;-62
2021/07/08 08:39:29;;;;;;;4.68;3.13;;;;;;;21.00;100.00;102013.38;3596549;39;20163;-62
2021/07/08 08:41:55;;;;;;;5.18;2.63;;;;;;;20.86;100.00;102014.09;3597154;40;20395;-61
2021/07/08 08:44:22;;;;;;;3.00;2.22;;;;;;;21.30;100.00;102021.81;3595746;39;20068;-61
2021/07/08 08:46:51;;;;;;;5.03;2.28;;;;;;;21.85;100.00;102017.22;3596723;39;20036;-61
2021/07/08 08:49:19;;;;;;;5.80;2.92;;;;;;;22.15;100.00;102013.72;3595986;39;20036;-61
2021/07/08 08:51:46;;;;;;;8.13;3.40;;;;;;;22.36;100.00;102016.66;3597580;40;20056;-61
2021/07/08 08:54:12;;;;;;;4.13;2.85;;;;;;;22.42;100.00;102009.53;3595814;39;20040;-61
2021/07/08 08:56:39;;;;;;;5.47;3.05;;;;;;;22.61;100.00;102005.41;3597411;40;20048;-62
2021/07/08 08:59:05;;;;;;;7.93;3.28;;;;;;;22.80;100.00;101998.50;3596596;40;20044;-61
2021/07/08 09:01:33;;;;;;;5.75;3.42;;;;;;;23.40;100.00;101996.56;3597437;40;20120;-61
2021/07/08 09:03:59;;;;;;;5.68;3.30;;;;;;;23.53;100.00;101993.09;3597123;40;20042;-61
2021/07/08 09:06:36;;;;;;;7.30;3.20;;;;;;;23.37;100.00;101999.69;3594520;40;20113;-61
2021/07/08 09:09:08;;;;;;;6.15;3.40;;;;;;;23.15;100.00;101997.94;3593737;40;20270;-61
2021/07/08 09:11:35;;;;;;;4.55;3.38;;;;;;;23.07;100.00;101996.09;3594649;40;20368;-61
2021/07/08 09:14:03;;;;;;;5.13;3.80;;;;;;;22.66;100.00;101988.38;3596533;40;20032;-61
2021/07/08 09:16:33;;;;;;;7.90;3.55;;;;;;;22.32;100.00;101987.88;3596859;39;20048;-61
2021/07/08 09:19:06;;;;;;;4.85;3.33;;;;;;;22.47;100.00;101989.81;3598697;40;20061;-62
2021/07/08 09:21:37;;;;;;;4.72;2.85;;;;;;;22.26;100.00;101998.72;3598784;39;20047;-62
2021/07/08 09:24:16;;;;;;;4.93;1.65;;;;;;;21.88;100.00;102003.16;3597940;39;20040;-62
2021/07/08 09:26:45;;;;;;;3.30;1.95;;;;;;;22.55;100.00;101992.44;3597473;40;20036;-62
2021/07/08 09:29:17;;;;;;;3.42;1.80;;;;;;;22.69;100.00;101994.34;3597882;40;20121;-62
2021/07/08 09:31:49;;;;;;;3.53;1.90;;;;;;;23.60;100.00;102001.41;3596369;39;20399;-62
2021/07/08 09:34:17;;;;;;;4.55;1.90;;;;;;;22.92;100.00;101993.38;3594780;39;20032;-62
2021/07/08 09:36:47;;;;;;;4.60;2.05;;;;;;;23.07;100.00;101990.63;3597144;39;20063;-62
2021/07/08 09:39:14;;;;;;;6.47;1.90;;;;;;;23.92;100.00;102001.97;3595923;39;20021;-62
2021/07/08 09:41:52;;;;;;;6.38;2.55;;;;;;;23.04;100.00;102004.72;3598053;39;20040;-62
2021/07/08 09:44:21;;;;;;;3.78;1.90;;;;;;;22.85;100.00;102009.78;3596370;39;20039;-62
2021/07/08 09:46:47;;;;;;;3.53;1.75;;;;;;;23.03;100.00;102012.13;3594743;39;20064;-62
2021/07/08 09:49:14;;;;;;;2.65;1.92;;;;;;;22.77;100.00;102017.25;3596113;39;20120;-62
2021/07/08 09:51:41;;;;;;;4.60;2.15;;;;;;;23.32;100.00;102029.66;3597091;39;20039;-62
2021/07/08 09:54:12;;;;;;;3.00;1.90;;;;;;;23.64;100.00;102016.47;3596592;39;20060;-62
2021/07/08 09:56:47;;;;;;;3.50;1.98;;;;;;;22.76;100.00;102005.41;3595730;39;20064;-62
2021/07/08 09:59:15;;;;;;;3.70;2.08;;;;;;;23.16;100.00;101999.63;3595730;39;20111;-62
2021/07/08 10:01:43;;;;;;;4.70;2.30;;;;;;;23.73;100.00;101990.59;3594917;39;20064;-62
2021/07/08 10:04:10;;;;;;;5.13;2.22;;;;;;;23.50;100.00;102004.50;3596961;39;20038;-62
2021/07/08 10:06:37;;;;;;;4.22;2.38;;;;;;;23.03;100.00;101994.81;3592746;40;20044;-62
2021/07/08 10:09:06;;;;;;;3.08;1.90;;;;;;;22.61;100.00;102013.63;3598047;39;20039;-62
2021/07/08 10:11:34;;;;;;;4.53;2.20;;;;;;;22.73;100.00;102039.59;3597036;39;20140;-61
2021/07/08 10:14:03;;;;;;;5.65;2.42;;;;;;;22.88;100.00;102047.84;3595592;39;20093;-62
2021/07/08 10:16:31;;;;;;;;;;;;;;;22.82;100.00;102055.94;3597754;39;20133;-62
2021/07/08 10:19:01;;;;;;;5.53;2.15;;;;;;;22.13;100.00;102049.56;3595372;39;20210;-61
2021/07/08 10:21:30;;;;;;;3.03;1.98;;;;;;;22.51;100.00;102035.88;3596404;39;20033;-62
2021/07/08 10:23:57;;;;;;;3.80;2.30;;;;;;;21.83;100.00;102037.59;3592321;39;20080;-61
2021/07/08 10:26:23;;;;;;;3.88;2.15;;;;;;;22.25;100.00;102041.75;3596690;39;20055;-61
2021/07/08 10:28:52;;;;;;;5.03;1.98;;;;;;;22.49;100.00;102048.06;3595345;39;20050;-62
2021/07/08 10:31:22;;;;;;;5.03;2.10;;;;;;;22.19;100.00;102045.22;3597176;39;20059;-61
2021/07/08 10:34:07;;;;;;;5.25;2.60;;;;;;;21.42;100.00;102046.91;3597327;39;20031;-61
2021/07/08 10:36:34;;;;;;;5.55;2.30;;;;;;;21.47;100.00;102051.84;3596878;39;20055;-61
2021/07/08 10:39:06;;;;;;;3.67;1.80;;;;;;;22.14;100.00;102050.41;3597871;39;20025;-61
2021/07/08 10:41:53;;;;;;;3.33;2.10;;;;;;;22.50;100.00;102044.31;3597118;39;20306;-61
2021/07/08 10:44:47;;;;;;;3.10;2.28;;;;;;;23.08;100.00;102042.59;3595760;39;20272;-62
2021/07/08 10:47:32;;;;;;;3.45;2.25;;;;;;;23.37;100.00;102029.91;3596742;39;20032;-62
2021/07/08 10:49:59;;;;;;;3.17;2.13;;;;;;;23.41;100.00;102033.97;3595628;39;20078;-62
2021/07/08 10:52:45;;;;;;;4.38;1.90;;;;;;;23.91;100.00;102022.25;3594445;39;20060;-62
2021/07/08 10:55:32;;;;;;;3.78;2.13;;;;;;;23.74;100.00;102025.25;3594475;39;20293;-62
2021/07/08 10:57:59;;;;;;;3.13;1.98;;;;;;;24.00;100.00;102023.84;3593662;39;20287;-62
2021/07/08 11:00:49;;;;;;;3.47;1.90;;;;;;;24.10;100.00;102024.38;3593432;39;20048;-62
2021/07/08 11:03:39;;;;;;;2.92;1.80;;;;;;;23.91;100.00;102022.25;3593970;39;20354;-61
2021/07/08 11:06:20;;;;;;;2.90;1.80;;;;;;;24.07;100.00;102021.16;3592551;39;20051;-62
2021/07/08 11:09:02;;;;;;;2.75;1.80;;;;;;;23.91;100.00;102014.88;3594766;39;20045;-61
2021/07/08 11:11:59;;;;;;;3.80;2.10;;;;;;;24.11;100.00;102012.31;3593641;40;20379;-62
2021/07/08 11:14:26;;;;;;;4.05;1.90;;;;;;;24.29;100.00;102016.47;3594128;39;20421;-62
2021/07/08 11:16:58;;;;;;;3.63;2.08;;;;;;;24.39;100.00;102016.97;3593233;40;20379;-62
2021/07/08 11:19:37;;;;;;;3.13;1.90;;;;;;;24.76;100.00;102012.16;3594705;40;20055;-62
2021/07/08 11:22:08;;;;;;;4.90;2.00;;;;;;;25.09;95.81;101997.72;3593269;39;20068;-63